createdAt,value
2019-02-18T00:01:45.997Z,5.04
2019-02-18T00:03:52.234Z,5.08
2019-02-18T00:05:58.600Z,5.13
2019-02-18T00:08:04.933Z,5.19
2019-02-18T00:10:11.097Z,5.23
2019-02-18T00:12:17.351Z,5.29
2019-02-18T00:14:23.751Z,5.34
2019-02-18T00:16:29.987Z,5.38
2019-02-18T00:18:36.300Z,5.43
2019-02-18T00:20:42.565Z,5.47
2019-02-18T00:22:48.802Z,5.50
2019-02-18T00:24:55.183Z,5.53
2019-02-18T00:27:01.514Z,5.55
2019-02-18T00:29:07.678Z,5.58
2019-02-18T00:31:13.900Z,5.61
2019-02-18T00:33:20.310Z,5.64
2019-02-18T00:35:26.579Z,5.66
2019-02-18T00:37:32.805Z,5.68
2019-02-18T00:39:39.195Z,5.69
2019-02-18T00:41:45.495Z,5.71
2019-02-18T00:43:52.805Z,5.70
2019-02-18T00:45:59.131Z,5.69
2019-02-18T00:48:05.505Z,5.68
2019-02-18T00:50:12.073Z,5.69
2019-02-18T00:52:18.393Z,5.71
2019-02-18T00:54:24.878Z,5.74
2019-02-18T00:56:31.105Z,5.74
2019-02-18T00:58:37.299Z,5.74
2019-02-18T01:00:43.535Z,5.73
2019-02-18T01:02:49.828Z,5.73
2019-02-18T01:04:56.167Z,5.72
2019-02-18T01:07:02.643Z,5.74
2019-02-18T01:09:09.069Z,5.72
2019-02-18T01:11:15.343Z,5.72
2019-02-18T01:13:21.647Z,5.70
2019-02-18T01:15:27.960Z,5.66
2019-02-18T01:17:34.305Z,5.68
2019-02-18T01:19:40.469Z,5.65
2019-02-18T01:21:46.709Z,5.66
2019-02-18T01:23:52.975Z,5.66
2019-02-18T01:25:59.137Z,5.64
2019-02-18T01:28:05.295Z,5.61
2019-02-18T01:30:16.297Z,5.61
2019-02-18T01:32:22.677Z,5.62
2019-02-18T01:34:28.832Z,5.66
2019-02-18T01:36:35.019Z,5.69
2019-02-18T01:38:41.268Z,5.71
2019-02-18T01:40:47.441Z,5.72
2019-02-18T01:42:53.632Z,5.73
2019-02-18T01:44:59.892Z,5.76
2019-02-18T01:47:06.169Z,5.78
2019-02-18T01:49:12.505Z,5.78
2019-02-18T01:51:18.737Z,5.77
2019-02-18T01:53:24.902Z,5.80
2019-02-18T01:55:31.176Z,5.82
2019-02-18T01:57:37.560Z,5.81
2019-02-18T01:59:43.722Z,5.82
2019-02-18T02:01:49.991Z,5.82
2019-02-18T02:03:56.211Z,5.85
2019-02-18T02:06:02.389Z,5.80
2019-02-18T02:08:08.670Z,5.82
2019-02-18T02:10:16.151Z,5.82
2019-02-18T02:12:22.310Z,5.83
2019-02-18T02:14:28.501Z,5.84
2019-02-18T02:16:34.740Z,5.85
2019-02-18T02:18:41.041Z,5.85
2019-02-18T02:20:47.256Z,5.87
2019-02-18T02:22:53.527Z,5.87
2019-02-18T02:24:59.684Z,5.87
2019-02-18T02:27:05.872Z,5.87
2019-02-18T02:29:12.170Z,5.89
2019-02-18T02:31:18.446Z,5.90
2019-02-18T02:33:26.317Z,5.91
2019-02-18T02:35:32.590Z,5.92
2019-02-18T02:37:39.017Z,5.92
2019-02-18T02:39:45.273Z,5.92
2019-02-18T02:41:51.504Z,5.92
2019-02-18T02:43:57.799Z,5.93
2019-02-18T02:46:04.070Z,5.95
2019-02-18T02:48:10.225Z,5.95
2019-02-18T02:50:16.587Z,5.97
2019-02-18T02:52:22.989Z,5.97
2019-02-18T02:54:29.366Z,5.99
2019-02-18T02:56:37.316Z,6.00
2019-02-18T02:58:43.675Z,6.02
2019-02-18T03:00:49.904Z,6.02
2019-02-18T03:02:56.082Z,6.02
2019-02-18T03:05:02.471Z,6.02
2019-02-18T03:07:08.707Z,6.01
2019-02-18T03:09:14.942Z,6.01
2019-02-18T03:11:21.249Z,6.02
2019-02-18T03:13:27.589Z,6.02
2019-02-18T03:15:33.895Z,6.02
2019-02-18T03:17:40.221Z,6.01
2019-02-18T03:19:46.380Z,6.01
2019-02-18T03:21:52.540Z,6.01
2019-02-18T03:23:58.803Z,6.00
2019-02-18T03:26:04.969Z,5.99
2019-02-18T03:28:28.024Z,5.99
2019-02-18T03:30:41.860Z,6.01
2019-02-18T03:32:48.415Z,6.00
2019-02-18T03:34:55.637Z,6.00
2019-02-18T03:37:01.971Z,5.99
2019-02-18T03:39:08.129Z,6.01
2019-02-18T03:41:14.278Z,6.01
2019-02-18T03:43:20.571Z,5.97
2019-02-18T03:45:26.657Z,5.95
2019-02-18T03:47:33.856Z,5.89
2019-02-18T03:49:40.047Z,5.91
2019-02-18T03:51:46.214Z,5.85
2019-02-18T03:53:52.479Z,5.85
2019-02-18T03:55:58.605Z,5.84
2019-02-18T03:58:04.899Z,5.76
2019-02-18T04:00:12.674Z,5.75
2019-02-18T04:02:19.006Z,5.78
2019-02-18T04:04:25.173Z,5.78
2019-02-18T04:06:31.340Z,5.76
2019-02-18T04:08:42.815Z,5.77
2019-02-18T04:10:45.534Z,5.81
2019-02-18T04:12:51.747Z,5.83
2019-02-18T04:14:57.934Z,5.79
2019-02-18T04:17:04.019Z,5.77
2019-02-18T04:19:10.276Z,5.78
2019-02-18T04:21:16.536Z,5.76
2019-02-18T04:23:22.760Z,5.76
2019-02-18T04:25:29.078Z,5.79
2019-02-18T04:27:35.222Z,5.81
2019-02-18T04:29:41.565Z,5.77
2019-02-18T04:31:47.893Z,5.76
2019-02-18T04:33:54.205Z,5.76
2019-02-18T04:36:00.442Z,5.73
2019-02-18T04:38:06.675Z,5.72
2019-02-18T04:40:12.860Z,5.72
2019-02-18T04:42:19.025Z,5.76
2019-02-18T04:44:25.184Z,5.76
2019-02-18T04:46:31.366Z,5.78
2019-02-18T04:48:37.709Z,5.79
2019-02-18T04:50:43.868Z,5.82
2019-02-18T04:52:50.210Z,5.80
2019-02-18T04:54:56.370Z,5.81
2019-02-18T04:57:02.450Z,5.80
2019-02-18T04:59:08.642Z,5.81
2019-02-18T05:01:14.827Z,5.81
2019-02-18T05:03:21.066Z,5.76
2019-02-18T05:05:27.251Z,5.72
2019-02-18T05:07:33.494Z,5.71
2019-02-18T05:09:40.185Z,5.73
2019-02-18T05:11:46.525Z,5.76
2019-02-18T05:13:52.713Z,5.72
2019-02-18T05:15:58.891Z,5.73
2019-02-18T05:18:05.155Z,5.74
2019-02-18T05:20:11.310Z,5.74
2019-02-18T05:22:17.541Z,5.74
2019-02-18T05:24:23.738Z,5.74
2019-02-18T05:26:29.970Z,5.74
2019-02-18T05:28:36.166Z,5.74
2019-02-18T05:30:42.818Z,5.77
2019-02-18T05:32:48.993Z,5.78
2019-02-18T05:34:55.307Z,5.80
2019-02-18T05:37:01.569Z,5.79
2019-02-18T05:39:17.509Z,5.79
2019-02-18T05:41:16.159Z,5.80
2019-02-18T05:43:22.471Z,5.79
2019-02-18T05:45:28.640Z,5.82
2019-02-18T05:47:34.941Z,5.81
2019-02-18T05:49:41.132Z,5.78
2019-02-18T05:51:47.268Z,5.78
2019-02-18T05:53:53.410Z,5.79
2019-02-18T05:55:59.668Z,5.78
2019-02-18T05:58:05.848Z,5.75
2019-02-18T06:00:13.567Z,5.73
2019-02-18T06:02:21.409Z,5.73
2019-02-18T06:04:27.793Z,5.74
2019-02-18T06:06:33.954Z,5.77
2019-02-18T06:08:40.151Z,5.76
2019-02-18T06:10:46.305Z,5.76
2019-02-18T06:12:52.470Z,5.76
2019-02-18T06:14:58.740Z,5.79
2019-02-18T06:17:05.106Z,5.80
2019-02-18T06:19:11.407Z,5.80
2019-02-18T06:21:17.611Z,5.84
2019-02-18T06:23:23.766Z,5.89
2019-02-18T06:25:30.012Z,5.94
2019-02-18T06:27:36.193Z,5.97
2019-02-18T06:29:42.485Z,6.04
2019-02-18T06:31:48.725Z,6.08
2019-02-18T06:33:54.982Z,6.12
2019-02-18T06:36:01.281Z,6.12
2019-02-18T06:38:07.434Z,6.15
2019-02-18T06:40:13.707Z,6.17
2019-02-18T06:42:19.863Z,6.22
2019-02-18T06:44:27.733Z,6.26
2019-02-18T06:46:35.570Z,6.34
2019-02-18T06:48:43.388Z,6.38
2019-02-18T06:50:49.543Z,6.44
2019-02-18T06:52:56.012Z,6.54
2019-02-18T06:55:02.256Z,6.61
2019-02-18T06:57:19.315Z,6.68
2019-02-18T06:59:27.128Z,6.72
2019-02-18T07:01:41.051Z,6.74
2019-02-18T07:03:51.986Z,6.70
2019-02-18T07:05:59.933Z,6.66
2019-02-18T07:08:07.724Z,6.74
2019-02-18T07:10:15.587Z,6.74
2019-02-18T07:12:26.492Z,6.78
2019-02-18T07:14:32.790Z,6.84
2019-02-18T07:16:39.029Z,6.77
2019-02-18T07:18:45.344Z,6.82
2019-02-18T07:20:51.503Z,6.84
2019-02-18T07:22:57.733Z,7.03
2019-02-18T07:25:04.868Z,7.16
2019-02-18T07:27:11.117Z,7.26
2019-02-18T07:29:17.359Z,7.38
2019-02-18T07:31:24.615Z,7.51
2019-02-18T07:33:30.854Z,7.54
2019-02-18T07:35:37.164Z,7.66
2019-02-18T07:37:43.430Z,7.66
2019-02-18T07:39:49.594Z,7.64
2019-02-18T07:41:55.825Z,7.56
2019-02-18T07:44:02.013Z,7.53
2019-02-18T07:46:08.319Z,7.56
2019-02-18T07:48:14.489Z,7.67
2019-02-18T07:50:21.130Z,7.77
2019-02-18T07:52:27.520Z,7.90
2019-02-18T07:54:33.679Z,7.94
2019-02-18T07:56:39.865Z,7.96
2019-02-18T07:58:46.167Z,8.05
2019-02-18T08:00:52.338Z,8.16
2019-02-18T08:02:58.612Z,8.26
2019-02-18T08:05:05.884Z,8.47
2019-02-18T08:07:12.133Z,8.72
2019-02-18T08:09:18.447Z,8.83
2019-02-18T08:11:24.687Z,8.94
2019-02-18T08:13:30.985Z,9.00
2019-02-18T08:15:37.340Z,8.78
2019-02-18T08:17:43.560Z,8.71
2019-02-18T08:19:49.718Z,8.66
2019-02-18T08:21:55.977Z,8.76
2019-02-18T08:24:02.144Z,8.93
2019-02-18T08:26:08.856Z,9.22
2019-02-18T08:28:15.098Z,9.29
2019-02-18T08:30:21.408Z,9.38
2019-02-18T08:32:27.715Z,9.48
2019-02-18T08:34:33.895Z,9.73
2019-02-18T08:36:40.070Z,9.98
2019-02-18T08:38:46.308Z,10.20
2019-02-18T08:40:53.577Z,10.33
2019-02-18T08:42:59.836Z,10.48
2019-02-18T08:45:12.151Z,10.58
2019-02-18T08:47:18.358Z,10.71
2019-02-18T08:49:24.598Z,10.80
2019-02-18T08:51:30.765Z,10.93
2019-02-18T08:53:37.031Z,10.60
2019-02-18T08:55:43.265Z,10.66
2019-02-18T08:57:49.570Z,10.88
2019-02-18T08:59:56.363Z,11.04
2019-02-18T09:02:02.664Z,11.29
2019-02-18T09:04:08.898Z,11.44
2019-02-18T09:06:15.238Z,11.39
2019-02-18T09:08:21.466Z,11.41
2019-02-18T09:10:33.671Z,11.52
2019-02-18T09:12:35.762Z,11.52
2019-02-18T09:14:41.998Z,11.60
2019-02-18T09:16:48.157Z,11.76
2019-02-18T09:18:55.441Z,11.78
2019-02-18T09:21:01.677Z,11.75
2019-02-18T09:23:15.548Z,11.90
2019-02-18T09:25:26.445Z,11.80
2019-02-18T09:27:33.490Z,11.84
2019-02-18T09:29:39.660Z,11.84
2019-02-18T09:31:46.049Z,12.05
2019-02-18T09:33:52.400Z,12.18
2019-02-18T09:35:58.578Z,12.28
2019-02-18T09:38:04.858Z,12.29
2019-02-18T09:40:12.171Z,12.24
2019-02-18T09:42:18.328Z,12.12
2019-02-18T09:44:24.582Z,12.21
2019-02-18T09:46:30.841Z,12.12
2019-02-18T09:48:37.091Z,12.27
2019-02-18T09:50:43.384Z,12.48
2019-02-18T09:52:49.617Z,12.36
2019-02-18T09:54:55.832Z,12.41
2019-02-18T09:57:02.110Z,12.60
2019-02-18T09:59:08.330Z,12.64
2019-02-18T10:01:14.492Z,12.63
2019-02-18T10:03:31.046Z,12.72
2019-02-18T10:05:28.886Z,12.55
2019-02-18T10:07:35.123Z,12.44
2019-02-18T10:09:41.392Z,12.50
2019-02-18T10:11:47.627Z,12.63
2019-02-18T10:13:53.797Z,12.66
2019-02-18T10:15:59.999Z,12.81
2019-02-18T10:18:06.160Z,12.91
2019-02-18T10:20:13.876Z,12.68
2019-02-18T10:22:20.157Z,12.57
2019-02-18T10:24:26.319Z,12.62
2019-02-18T10:26:32.476Z,12.74
2019-02-18T10:28:38.809Z,12.76
2019-02-18T10:30:45.140Z,12.75
2019-02-18T10:32:51.297Z,12.81
2019-02-18T10:34:57.672Z,12.73
2019-02-18T10:37:03.900Z,12.83
2019-02-18T10:39:10.070Z,12.75
2019-02-18T10:41:19.220Z,12.67
2019-02-18T10:43:32.212Z,12.58
2019-02-18T10:45:32.549Z,12.60
2019-02-18T10:47:38.823Z,12.52
2019-02-18T10:49:44.912Z,12.64
2019-02-18T10:51:51.173Z,12.65
2019-02-18T10:53:57.433Z,12.59
2019-02-18T10:56:03.952Z,12.54
2019-02-18T10:58:10.178Z,12.37
2019-02-18T11:00:17.647Z,12.34
2019-02-18T11:02:23.942Z,12.31
2019-02-18T11:04:30.257Z,12.28
2019-02-18T11:06:36.521Z,12.13
2019-02-18T11:08:42.960Z,12.11
2019-02-18T11:10:49.188Z,12.03
2019-02-18T11:12:55.374Z,11.78
2019-02-18T11:15:01.615Z,11.65
2019-02-18T11:17:08.924Z,11.72
2019-02-18T11:19:17.513Z,11.88
2019-02-18T11:21:23.047Z,11.92
2019-02-18T11:23:29.289Z,11.88
2019-02-18T11:25:35.481Z,11.92
2019-02-18T11:27:42.935Z,11.98
2019-02-18T11:29:49.247Z,12.02
2019-02-18T11:31:55.427Z,11.89
2019-02-18T11:34:01.665Z,11.61
2019-02-18T11:36:08.121Z,11.59
2019-02-18T11:38:14.430Z,11.73
2019-02-18T11:40:20.734Z,11.79
2019-02-18T11:42:27.483Z,11.72
2019-02-18T11:44:33.747Z,11.70
2019-02-18T11:46:39.972Z,11.74
2019-02-18T11:48:46.143Z,11.68
2019-02-18T11:50:52.338Z,11.69
2019-02-18T11:52:58.572Z,11.82
2019-02-18T11:55:08.404Z,11.84
2019-02-18T11:57:14.656Z,11.92
2019-02-18T11:59:24.370Z,11.98
2019-02-18T12:01:29.036Z,12.05
2019-02-18T12:03:35.363Z,12.02
2019-02-18T12:05:41.598Z,11.82
2019-02-18T12:07:47.767Z,11.76
2019-02-18T12:09:55.061Z,11.70
2019-02-18T12:12:01.225Z,11.74
2019-02-18T12:14:07.520Z,11.76
2019-02-18T12:16:13.712Z,11.78
2019-02-18T12:18:19.873Z,11.67
2019-02-18T12:20:26.395Z,11.54
2019-02-18T12:22:32.650Z,11.41
2019-02-18T12:24:39.254Z,11.51
2019-02-18T12:26:46.575Z,11.56
2019-02-18T12:28:52.766Z,11.62
2019-02-18T12:30:58.992Z,11.66
2019-02-18T12:33:05.498Z,11.57
2019-02-18T12:35:11.753Z,11.42
2019-02-18T12:37:18.024Z,11.49
2019-02-18T12:39:24.266Z,11.51
2019-02-18T12:41:30.448Z,11.37
2019-02-18T12:43:36.687Z,11.36
2019-02-18T12:45:42.855Z,11.30
2019-02-18T12:47:50.243Z,11.26
2019-02-18T12:49:56.532Z,11.03
2019-02-18T12:52:02.769Z,11.08
2019-02-18T12:54:09.096Z,11.19
2019-02-18T12:56:15.484Z,11.28
2019-02-18T12:58:22.159Z,11.34
2019-02-18T13:00:28.554Z,11.25
2019-02-18T13:02:43.684Z,11.26
2019-02-18T13:04:42.585Z,11.21
2019-02-18T13:06:49.103Z,11.28
2019-02-18T13:08:55.486Z,11.32
2019-02-18T13:11:02.855Z,11.37
2019-02-18T13:13:09.211Z,11.39
2019-02-18T13:15:19.090Z,11.38
2019-02-18T13:17:25.400Z,11.43
2019-02-18T13:19:31.595Z,11.42
2019-02-18T13:21:37.906Z,11.45
2019-02-18T13:23:44.076Z,11.46
2019-02-18T13:25:50.329Z,11.37
2019-02-18T13:27:56.598Z,11.39
2019-02-18T13:30:02.833Z,11.25
2019-02-18T13:32:09.228Z,11.26
2019-02-18T13:34:15.535Z,11.25
2019-02-18T13:36:21.769Z,11.27
2019-02-18T13:38:28.108Z,11.34
2019-02-18T13:40:34.291Z,11.34
2019-02-18T13:42:40.528Z,11.21
2019-02-18T13:44:46.791Z,11.25
2019-02-18T13:46:53.035Z,11.28
2019-02-18T13:48:59.198Z,11.20
2019-02-18T13:51:05.624Z,11.27
2019-02-18T13:53:11.926Z,11.32
2019-02-18T13:55:18.297Z,11.37
2019-02-18T13:57:24.693Z,11.36
2019-02-18T13:59:30.934Z,11.38
2019-02-18T14:01:38.348Z,11.35
2019-02-18T14:03:44.723Z,11.17
2019-02-18T14:05:50.882Z,11.16
2019-02-18T14:07:57.118Z,10.93
2019-02-18T14:10:03.464Z,10.78
2019-02-18T14:12:15.953Z,10.89
2019-02-18T14:14:17.884Z,10.99
2019-02-18T14:16:24.070Z,10.96
2019-02-18T14:18:30.250Z,11.03
2019-02-18T14:20:36.637Z,10.95
2019-02-18T14:22:42.848Z,10.88
2019-02-18T14:24:49.467Z,10.77
2019-02-18T14:26:55.782Z,10.79
2019-02-18T14:29:02.044Z,10.77
2019-02-18T14:31:08.333Z,10.73
2019-02-18T14:33:14.581Z,10.67
2019-02-18T14:35:20.919Z,10.68
2019-02-18T14:37:27.599Z,10.71
2019-02-18T14:39:33.843Z,10.59
2019-02-18T14:41:40.102Z,10.54
2019-02-18T14:43:46.269Z,10.45
2019-02-18T14:45:52.423Z,10.45
2019-02-18T14:47:58.770Z,10.48
2019-02-18T14:50:08.216Z,10.43
2019-02-18T14:52:14.592Z,10.35
2019-02-18T14:54:20.836Z,10.28
2019-02-18T14:56:26.943Z,10.28
2019-02-18T14:58:33.115Z,10.24
2019-02-18T15:00:39.386Z,10.18
2019-02-18T15:02:45.837Z,10.09
2019-02-18T15:04:53.516Z,10.05
2019-02-18T15:06:59.718Z,9.94
2019-02-18T15:09:06.536Z,9.96
2019-02-18T15:11:13.726Z,9.98
2019-02-18T15:13:20.010Z,10.00
2019-02-18T15:15:26.247Z,9.99
2019-02-18T15:17:32.496Z,9.97
2019-02-18T15:19:40.948Z,9.97
2019-02-18T15:21:47.193Z,9.94
2019-02-18T15:23:53.414Z,9.82
2019-02-18T15:25:59.684Z,9.75
2019-02-18T15:28:05.907Z,9.61
2019-02-18T15:30:16.006Z,9.53
2019-02-18T15:32:23.507Z,9.47
2019-02-18T15:34:30.736Z,9.36
2019-02-18T15:36:36.978Z,9.25
2019-02-18T15:38:43.158Z,9.20
2019-02-18T15:40:49.470Z,9.12
2019-02-18T15:42:55.967Z,9.07
2019-02-18T15:45:02.289Z,9.01
2019-02-18T15:47:09.744Z,8.95
2019-02-18T15:49:16.029Z,8.85
2019-02-18T15:51:22.303Z,8.80
2019-02-18T15:53:29.461Z,8.74
2019-02-18T15:55:35.797Z,8.66
2019-02-18T15:57:42.124Z,8.58
2019-02-18T15:59:48.424Z,8.50
2019-02-18T16:01:54.923Z,8.46
2019-02-18T16:04:01.384Z,8.40
2019-02-18T16:06:07.613Z,8.34
2019-02-18T16:08:13.923Z,8.27
2019-02-18T16:10:20.179Z,8.19
2019-02-18T16:12:26.513Z,8.10
2019-02-18T16:14:32.820Z,8.01
2019-02-18T16:16:39.153Z,7.93
2019-02-18T16:18:45.430Z,7.86
2019-02-18T16:20:52.051Z,7.79
2019-02-18T16:22:58.368Z,7.76
2019-02-18T16:25:07.214Z,7.70
2019-02-18T16:27:13.401Z,7.64
2019-02-18T16:29:19.572Z,7.58
2019-02-18T16:31:26.522Z,7.54
2019-02-18T16:33:32.863Z,7.46
2019-02-18T16:35:39.163Z,7.42
2019-02-18T16:37:47.125Z,7.38
2019-02-18T16:39:54.536Z,7.33
2019-02-18T16:42:02.365Z,7.27
2019-02-18T16:44:08.586Z,7.20
2019-02-18T16:46:15.993Z,7.13
2019-02-18T16:48:22.757Z,7.06
2019-02-18T16:50:29.127Z,6.98
2019-02-18T16:52:35.494Z,6.92
2019-02-18T16:54:42.100Z,6.86
2019-02-18T16:56:48.330Z,6.80
2019-02-18T16:58:54.708Z,6.75
2019-02-18T17:01:02.255Z,6.66
2019-02-18T17:03:08.491Z,6.55
2019-02-18T17:05:14.775Z,6.49
2019-02-18T17:07:21.287Z,6.46
2019-02-18T17:09:27.453Z,6.41
2019-02-18T17:11:33.820Z,6.41
2019-02-18T17:13:40.165Z,6.38
2019-02-18T17:15:46.459Z,6.41
2019-02-18T17:17:52.822Z,6.37
2019-02-18T17:19:59.084Z,6.35
2019-02-18T17:22:05.245Z,6.35
2019-02-18T17:24:13.062Z,6.31
2019-02-18T17:26:19.469Z,6.25
2019-02-18T17:28:25.758Z,6.23
2019-02-18T17:30:32.227Z,6.21
2019-02-18T17:32:38.475Z,6.15
2019-02-18T17:34:44.859Z,6.08
2019-02-18T17:36:51.174Z,6.00
2019-02-18T17:38:59.309Z,5.94
2019-02-18T17:41:08.429Z,5.88
2019-02-18T17:43:16.601Z,5.86
2019-02-18T17:45:22.897Z,5.87
2019-02-18T17:47:29.183Z,5.85
2019-02-18T17:49:35.470Z,5.80
2019-02-18T17:51:41.875Z,5.80
2019-02-18T17:53:50.375Z,5.75
2019-02-18T17:55:56.596Z,5.68
2019-02-18T17:58:04.095Z,5.63
2019-02-18T18:00:14.937Z,5.59
2019-02-18T18:02:21.127Z,5.59
2019-02-18T18:04:27.369Z,5.57
2019-02-18T18:06:35.373Z,5.53
2019-02-18T18:08:41.604Z,5.53
2019-02-18T18:10:47.995Z,5.51
2019-02-18T18:12:54.563Z,5.52
2019-02-18T18:15:00.865Z,5.50
2019-02-18T18:17:07.778Z,5.45
2019-02-18T18:19:14.082Z,5.43
2019-02-18T18:21:20.338Z,5.40
2019-02-18T18:23:26.557Z,5.31
2019-02-18T18:25:34.030Z,5.25
2019-02-18T18:27:40.397Z,5.20
2019-02-18T18:29:46.713Z,5.16
2019-02-18T18:31:53.083Z,5.13
2019-02-18T18:33:59.522Z,5.06
2019-02-18T18:36:09.154Z,5.03
2019-02-18T18:38:17.009Z,5.05
2019-02-18T18:40:24.348Z,5.01
2019-02-18T18:42:30.706Z,4.98
2019-02-18T18:44:38.642Z,4.95
2019-02-18T18:46:45.008Z,4.91
2019-02-18T18:48:51.442Z,4.86
2019-02-18T18:50:57.819Z,4.84
2019-02-18T18:53:05.116Z,4.81
2019-02-18T18:55:11.490Z,4.81
2019-02-18T18:57:19.418Z,4.81
2019-02-18T18:59:25.639Z,4.83
2019-02-18T19:01:32.359Z,4.81
2019-02-18T19:03:38.648Z,4.78
2019-02-18T19:05:45.091Z,4.75
2019-02-18T19:07:51.501Z,4.73
2019-02-18T19:09:57.747Z,4.70
2019-02-18T19:12:08.525Z,4.69
2019-02-18T19:14:14.919Z,4.68
2019-02-18T19:16:21.551Z,4.68
2019-02-18T19:18:29.824Z,4.66
2019-02-18T19:20:36.182Z,4.64
2019-02-18T19:22:42.494Z,4.63
2019-02-18T19:24:48.728Z,4.60
2019-02-18T19:26:55.047Z,4.58
2019-02-18T19:29:02.888Z,4.58
2019-02-18T19:31:09.187Z,4.56
2019-02-18T19:33:15.523Z,4.53
2019-02-18T19:35:21.910Z,4.53
2019-02-18T19:37:28.138Z,4.52
2019-02-18T19:39:34.467Z,4.52
2019-02-18T19:41:40.793Z,4.51
2019-02-18T19:43:50.356Z,4.49
2019-02-18T19:45:55.160Z,4.49
2019-02-18T19:48:01.595Z,4.49
2019-02-18T19:50:08.598Z,4.48
2019-02-18T19:52:14.976Z,4.49
2019-02-18T19:54:21.132Z,4.53
2019-02-18T19:56:27.918Z,4.54
2019-02-18T19:58:34.317Z,4.51
2019-02-18T20:00:40.690Z,4.50
2019-02-18T20:02:47.055Z,4.50
2019-02-18T20:04:53.324Z,4.50
2019-02-18T20:06:59.611Z,4.50
2019-02-18T20:09:09.415Z,4.51
2019-02-18T20:11:15.908Z,4.55
2019-02-18T20:13:22.211Z,4.60
2019-02-18T20:15:28.466Z,4.64
2019-02-18T20:17:34.935Z,4.64
2019-02-18T20:19:41.302Z,4.64
2019-02-18T20:21:47.667Z,4.64
2019-02-18T20:23:56.793Z,4.68
2019-02-18T20:26:02.300Z,4.68
2019-02-18T20:28:08.387Z,4.72
2019-02-18T20:30:19.363Z,4.72
2019-02-18T20:32:25.600Z,4.67
2019-02-18T20:34:33.348Z,4.65
2019-02-18T20:36:39.872Z,4.63
2019-02-18T20:38:46.182Z,4.62
2019-02-18T20:40:52.464Z,4.60
2019-02-18T20:42:58.857Z,4.60
2019-02-18T20:45:08.808Z,4.61
2019-02-18T20:47:15.176Z,4.57
2019-02-18T20:49:21.712Z,4.60
2019-02-18T20:51:30.222Z,4.60
2019-02-18T20:53:39.605Z,4.59
2019-02-18T20:55:47.491Z,4.57
2019-02-18T20:57:53.856Z,4.55
2019-02-18T21:00:01.693Z,4.51
2019-02-18T21:02:09.108Z,4.48
2019-02-18T21:04:17.029Z,4.43
2019-02-18T21:06:25.217Z,4.41
2019-02-18T21:08:33.077Z,4.45
2019-02-18T21:10:39.449Z,4.45
2019-02-18T21:12:45.750Z,4.43
2019-02-18T21:14:52.104Z,4.43
2019-02-18T21:16:58.531Z,4.40
2019-02-18T21:19:04.769Z,4.40
2019-02-18T21:21:13.921Z,4.40
2019-02-18T21:23:19.448Z,4.35
2019-02-18T21:25:25.660Z,4.33
2019-02-18T21:27:32.027Z,4.34
2019-02-18T21:29:38.243Z,4.38
2019-02-18T21:31:44.483Z,4.43
2019-02-18T21:33:50.957Z,4.46
2019-02-18T21:35:59.137Z,4.45
2019-02-18T21:38:05.425Z,4.44
2019-02-18T21:40:12.885Z,4.43
2019-02-18T21:42:19.191Z,4.43
2019-02-18T21:44:26.230Z,4.39
2019-02-18T21:46:33.595Z,4.38
2019-02-18T21:48:39.751Z,4.39
2019-02-18T21:50:46.096Z,4.38
2019-02-18T21:52:52.423Z,4.35
2019-02-18T21:54:58.627Z,4.34
2019-02-18T21:57:05.002Z,4.33
2019-02-18T21:59:11.659Z,4.30
2019-02-18T22:01:18.634Z,4.33
2019-02-18T22:03:24.909Z,4.28
2019-02-18T22:05:31.101Z,4.23
2019-02-18T22:07:37.437Z,4.23
2019-02-18T22:09:43.806Z,4.24
2019-02-18T22:11:50.328Z,4.21
2019-02-18T22:13:56.550Z,4.21
2019-02-18T22:16:02.937Z,4.17
2019-02-18T22:18:09.239Z,4.15
2019-02-18T22:20:15.402Z,4.12
2019-02-18T22:22:21.763Z,4.08
2019-02-18T22:24:28.536Z,4.06
2019-02-18T22:26:34.709Z,4.08
2019-02-18T22:28:40.977Z,4.08
2019-02-18T22:30:47.382Z,4.06
2019-02-18T22:32:53.807Z,4.04
2019-02-18T22:35:00.301Z,4.04
2019-02-18T22:37:06.679Z,3.99
2019-02-18T22:39:12.897Z,3.93
2019-02-18T22:41:19.202Z,3.91
2019-02-18T22:43:25.605Z,3.99
2019-02-18T22:45:32.037Z,3.97
2019-02-18T22:47:38.683Z,3.97
2019-02-18T22:49:45.098Z,3.98
2019-02-18T22:51:52.328Z,3.93
2019-02-18T22:53:58.697Z,3.90
2019-02-18T22:56:04.915Z,3.89
2019-02-18T22:58:11.228Z,3.84
2019-02-18T23:00:53.622Z,3.84
2019-02-18T23:03:01.371Z,3.89
2019-02-18T23:05:07.747Z,3.91
2019-02-18T23:07:14.032Z,3.92
2019-02-18T23:09:20.346Z,3.92
2019-02-18T23:11:26.577Z,3.90
2019-02-18T23:13:32.938Z,3.87
2019-02-18T23:15:39.261Z,3.89
2019-02-18T23:17:45.418Z,3.86
2019-02-18T23:19:51.962Z,3.84
2019-02-18T23:21:58.232Z,3.78
2019-02-18T23:24:04.394Z,3.73
2019-02-18T23:26:10.647Z,3.70
2019-02-18T23:28:16.843Z,3.73
2019-02-18T23:30:22.996Z,3.70
2019-02-18T23:32:29.606Z,3.67
2019-02-18T23:34:35.867Z,3.71
2019-02-18T23:36:42.031Z,3.71
2019-02-18T23:38:48.266Z,3.66
2019-02-18T23:40:55.426Z,3.63
2019-02-18T23:43:01.689Z,3.61
2019-02-18T23:45:08.036Z,3.58
2019-02-18T23:47:14.222Z,3.57
2019-02-18T23:49:20.446Z,3.54
2019-02-18T23:51:26.873Z,3.50
2019-02-18T23:53:33.068Z,3.46
2019-02-18T23:55:39.324Z,3.41
2019-02-18T23:57:45.504Z,3.38
2019-02-18T23:59:51.721Z,3.37
